• Join FlightAware (Why Join?)
  • Login
  • US Flag 
05:40PM EDT


 

Airport Tracker/Info


-or-


 

Live Flight TrackerFlight Track Log ✈ EJA583 ✈ 14-Sep-2013 ✈ KORH - KTEB

Flight Track Log - Related Links

Times and Time Zones

All times are in EDT time to prevent confusion due to time zone crossing. See the EJA583 flight status page for this flight to view local times or setup timezone preferences in your user account.

Time Position Orientation Groundspeed Altitude Reporting Facility
EDT Latitude Longitude Course Direction KTS MPH feet Rate Location/Type
06:24PM 42.2658 -71.9042 263° West 150 173 3,400  Level Boston Center
06:24PM 42.2639 -71.9267 263° West 153 176 4,400 2,940 Climbing Boston Center
06:25PM 42.2642 -71.9911 270° West 230 265 7,500 3,120 Climbing Boston Center
06:26PM 42.2497 -72.1008 260° West 255 293 10,800 2,940 Climbing Boston Center
06:27PM 42.2356 -72.1933 258° West 278 320 13,500 2,520 Climbing Boston Center
06:28PM 42.2211 -72.3083 260° West 284 327 16,000 1,260 Climbing Boston Center
06:29PM 42.2044 -72.4150 258° West 318 366 16,000  Level Boston Center
06:30PM 42.1856 -72.5494 259° West 332 382 16,000  Level Boston Center
06:31PM 42.1522 -72.6444 245° Southwest 332 382 16,000  Level Boston Center
06:32PM 42.1144 -72.7536 245° Southwest 327 376 16,000  Level Boston Center
06:33PM 42.0703 -72.8708 243° Southwest 322 371 16,000  Level Boston Center
06:34PM 42.0344 -72.9683 244° Southwest 322 371 16,000 -600 Level Boston Center
06:35PM 41.9900 -73.0853 243° Southwest 315 362 14,900 -1,080 Descending Boston Center
06:36PM 41.9519 -73.1883 244° Southwest 324 373 13,900 -1,140 Descending Boston Center
06:37PM 41.9072 -73.3075 243° Southwest 324 373 12,700 -1,020 Descending Boston Center
06:38PM 41.8647 -73.4242 244° Southwest 338 389 12,000 -480 Descending Boston Center
06:39PM 41.8264 -73.5183 241° Southwest 338 389 11,800 -660 Descending Boston Center
06:40PM 41.7731 -73.6314 238° Southwest 333 383 10,700 -900 Descending Boston Center
06:41PM 41.7347 -73.7169 239° Southwest 317 365 10,000 -360 Descending Boston Center
06:42PM 41.6833 -73.8217 237° Southwest 311 358 10,000  Level Boston Center
06:43PM 41.6425 -73.9125 239° Southwest 316 364 10,000 -300 Level Boston Center
06:44PM 41.5911 -74.0167 237° Southwest 311 358 9,500 -780 Descending Boston Center
06:46PM 41.5333 -74.1500 240° Southwest 257 296 8,000 -600 Descending New York TRACON
06:47PM 41.5000 -74.2333 242° Southwest 263 303 8,000 -420 Level New York TRACON
06:48PM 41.4500 -74.3167 231° Southwest 269 310 7,200 -660 Descending New York TRACON
06:49PM 41.3833 -74.3500 201° Southwest 261 300 6,700 -780 Descending New York TRACON
06:50PM 41.3167 -74.3500 180° South 261 300 5,700 -900 Descending New York TRACON
06:51PM 41.2333 -74.3667 189° South 254 292 4,900 -900 Descending New York TRACON
06:52PM 41.1667 -74.3667 180° South 262 302 3,900 -960 Descending New York TRACON
06:53PM 41.1000 -74.3833 191° South 268 308 3,000 -480 Descending New York TRACON
06:54PM 41.0167 -74.3833 180° South 246 283 3,000  Level New York TRACON
06:55PM 40.9500 -74.3833 180° South 266 306 3,000  Level New York TRACON
06:56PM 40.8833 -74.3500 159° South 270 311 3,000 -120 Level New York TRACON
06:57PM 40.8333 -74.3000 143° Southeast 269 310 2,800 -540 Descending New York TRACON
06:58PM 40.7667 -74.2500 150° Southeast 238 274 2,000 -480 Descending New York TRACON
06:59PM 40.7667 -74.1833 90° East 191 220 1,900 -360 Descending New York TRACON
07:00PM 40.8000 -74.1333 49° Northeast 158 182 1,300 -720 Descending New York TRACON
07:01PM 40.8333 -74.1000 37° Northeast 132 152 500 -840 Descending New York TRACON
07:03PM 40.8501 -74.0608 50° Northeast  Level Estimated
07:10PM 40.8501 -74.0608 50° Northeast  Level Estimated
07:11PM 40.8501 -74.0608 50° Northeast  Level Estimated